Connexion S'enregistrer

Connexion à votre compte

Identifiant
Mot de passe
Maintenir la connexion active sur ce site

Créer un compte

Pour valider ce formulaire, vous devez remplir tous les champs.
Nom
Identifiant
Mot de passe
Répétez le mot de passe
Adresse e-mail
Répétez l'adresse e-mail

Les inscriptions au BIA pour l'année 2017-2018 sont désormais closes. Rendez-vous l'année prochaine.

En attendant, renseignez-vous dans la rubrique "Ecole de pilotage-BIA".

 

                                                                                          BIA 2

Nous contacter

 Téléphone : +33 (0)4 79 54 41 81

Coordonnées détaillées et accès : cliquez ici

 
LFLB °C
    Ferienhaus Ostsee
[source: ADDS]
METAR
LFLB 211200Z AUTO 01003KT CAVOK 19/11 Q1019 NOSIG =
TAF
TAF LFLB 211100Z 2112/2212 18008KT CAVOK BECMG 2114/2116 05008KT -RA BKN025 BKN040 TEMPO 2116/2119 VRB15G25KT 3000 SHRA BKN020 SCT025TCU BKN035 BECMG 2202/2204 NSW FEW023 BKN060 BECMG 2207/2209 SCT030 BKN040 =
SR / SS: 06:01 / 16:40 UTC (Lever/Coucher du soleil le 2017-10-21)
JSN Boot template designed by JoomlaShine.com